MSC Baleares — V7DP5 — position and weather

sailwx.info

Track history (hours):
 
Tides and Currents Weather Stations Pressure Air Temp Water Temp Dewpoint Dewpoint Depression Visibility Wind Speed Wind Dir Waves Ship Positions

MSC Baleares

Last reported at 2018-May-20 14:59 UTC. Time now 2018-May-28 01:36 UTC.
Position N 10°19' W 017°09'.

Length 202 m; draft 0.87 m.

Type: Cargo ship. MMSI: 538001686.

Date/timePositionNaut miles runAvg speedWind from/ knotsBaromVisibWave heightAir tempDewpointWater temp
2018-May-20 14:59N 10°19' W 017°09'1112.2
2018-May-20 14:05N 10°29' W 017°15'111.9
2018-May-20 13:58N 10°30' W 017°15'611.6
2018-May-20 13:29N 10°35' W 017°18'  
2018-May-16 22:41N 27°41' W 015°13'212.8
2018-May-16 22:30N 27°43' W 015°11'712.6
2018-May-16 21:58N 27°49' W 015°08'612.6
2018-May-16 21:30N 27°55' W 015°06'612.7
2018-May-16 21:00N 28°00' W 015°03'612.5
2018-May-16 20:30N 28°06' W 015°01'712.8
2018-May-16 19:57N 28°13' W 014°58'613.0
2018-May-16 19:30N 28°19' W 014°56'612.9
2018-May-16 19:00N 28°25' W 014°54'612.8
2018-May-16 18:30N 28°31' W 014°52'612.4
2018-May-16 18:00N 28°37' W 014°50'  
2018-May-14 11:54N 39°16' W 011°48'  
2018-May-11 18:02N 49°48' W 003°26'011.1
2018-May-11 18:00N 49°48' W 003°26'510.7
2018-May-11 17:29N 49°51' W 003°19'510.7
2018-May-11 17:00N 49°53' W 003°12'510.5
2018-May-11 16:30N 49°56' W 003°04'510.5
2018-May-11 16:00N 49°58' W 002°57'510.4
2018-May-11 15:29N 50°00' W 002°50'510.8
2018-May-11 15:00N 50°01' W 002°42'611.0
2018-May-11 14:30N 50°03' W 002°33'611.4
2018-May-11 14:00N 50°04' W 002°25'1612.4
2018-May-11 12:42N 50°09' W 002°00'313.4
2018-May-11 12:27N 50°10' W 001°56'813.8
2018-May-11 11:52N 50°13' W 001°44'1314.1
2018-May-11 10:57N 50°15' W 001°24'1814.0
2018-May-11 09:42N 50°20' W 000°57'313.4
2018-May-11 09:30N 50°21' W 000°54'712.9
2018-May-11 08:57N 50°23' W 000°43'612.5
2018-May-11 08:30N 50°24' W 000°34'612.2
2018-May-11 08:00N 50°26' W 000°25'611.8
2018-May-11 07:31N 50°27' W 000°16'611.1
2018-May-11 07:01N 50°29' W 000°08'510.6
2018-May-11 06:30N 50°30' E 000°00'510.6
2018-May-11 06:01N 50°32' E 000°08'510.5
2018-May-11 05:31N 50°33' E 000°16'510.6
2018-May-11 05:00N 50°34' E 000°25'510.8
2018-May-11 04:30N 50°35' E 000°33'611.2
2018-May-11 04:01N 50°38' E 000°40'611.7
2018-May-11 03:31N 50°41' E 000°48'612.2
2018-May-11 03:00N 50°45' E 000°56'612.7
2018-May-11 02:31N 50°48' E 001°04'612.6
2018-May-11 02:00N 50°52' E 001°12'612.4
2018-May-11 01:31N 50°56' E 001°20'612.6
2018-May-11 01:01N 51°01' E 001°26'612.1
2018-May-11 00:31N 51°05' E 001°33'611.0
2018-May-11 00:01N 51°09' E 001°39'611.0
2018-May-10 23:30N 51°13' E 001°45'510.7
2018-May-10 23:01N 51°17' E 001°50'510.5
2018-May-10 22:31N 51°22' E 001°55'5 9.8
2018-May-10 22:01N 51°25' E 001°60'611.4
2018-May-10 21:30N 51°23' E 002°08'611.3
2018-May-10 21:01N 51°21' E 002°16'510.7
2018-May-10 20:30N 51°22' E 002°25'511.0
2018-May-10 20:01N 51°23' E 002°33'611.3
2018-May-10 19:30N 51°23' E 002°42'510.7
2018-May-10 19:00N 51°22' E 002°51'611.7
2018-May-10 18:30N 51°24' E 003°00'511.0
2018-May-10 18:00N 51°24' E 003°09'611.2
2018-May-10 17:30N 51°25' E 003°18'611.3
2018-May-10 17:00N 51°25' E 003°27'510.3
2018-May-10 16:30N 51°25' E 003°35'4 7.0
2018-May-10 16:00N 51°26' E 003°41'611.2
2018-May-10 15:31N 51°22' E 003°46'611.7
2018-May-10 15:00N 51°22' E 003°55'  
Track history (hours):
 
Tides and Currents Weather Stations Pressure Air Temp Water Temp Dewpoint Dewpoint Depression Visibility Wind Speed Wind Dir Waves Ship Positions

MSC Baleares

Last reported at 2018-May-20 14:59 UTC. Time now 2018-May-28 01:36 UTC.
Position N 10°19' W 017°09'.

Length 202 m; draft 0.87 m.

Type: Cargo ship. MMSI: 538001686.

Date/timePositionNaut miles runAvg speedWind from/ knotsBaromVisibWave heightAir tempDewpointWater temp
2018-May-20 14:59N 10°19' W 017°09'1112.2
2018-May-20 14:05N 10°29' W 017°15'111.9
2018-May-20 13:58N 10°30' W 017°15'611.6
2018-May-20 13:29N 10°35' W 017°18'  
2018-May-16 22:41N 27°41' W 015°13'212.8
2018-May-16 22:30N 27°43' W 015°11'712.6
2018-May-16 21:58N 27°49' W 015°08'612.6
2018-May-16 21:30N 27°55' W 015°06'612.7
2018-May-16 21:00N 28°00' W 015°03'612.5
2018-May-16 20:30N 28°06' W 015°01'712.8
2018-May-16 19:57N 28°13' W 014°58'613.0
2018-May-16 19:30N 28°19' W 014°56'612.9
2018-May-16 19:00N 28°25' W 014°54'612.8
2018-May-16 18:30N 28°31' W 014°52'612.4
2018-May-16 18:00N 28°37' W 014°50'  
2018-May-14 11:54N 39°16' W 011°48'  
2018-May-11 18:02N 49°48' W 003°26'011.1
2018-May-11 18:00N 49°48' W 003°26'510.7
2018-May-11 17:29N 49°51' W 003°19'510.7
2018-May-11 17:00N 49°53' W 003°12'510.5
2018-May-11 16:30N 49°56' W 003°04'510.5
2018-May-11 16:00N 49°58' W 002°57'510.4
2018-May-11 15:29N 50°00' W 002°50'510.8
2018-May-11 15:00N 50°01' W 002°42'611.0
2018-May-11 14:30N 50°03' W 002°33'611.4
2018-May-11 14:00N 50°04' W 002°25'1612.4
2018-May-11 12:42N 50°09' W 002°00'313.4
2018-May-11 12:27N 50°10' W 001°56'813.8
2018-May-11 11:52N 50°13' W 001°44'1314.1
2018-May-11 10:57N 50°15' W 001°24'1814.0
2018-May-11 09:42N 50°20' W 000°57'313.4
2018-May-11 09:30N 50°21' W 000°54'712.9
2018-May-11 08:57N 50°23' W 000°43'612.5
2018-May-11 08:30N 50°24' W 000°34'612.2
2018-May-11 08:00N 50°26' W 000°25'611.8
2018-May-11 07:31N 50°27' W 000°16'611.1
2018-May-11 07:01N 50°29' W 000°08'510.6
2018-May-11 06:30N 50°30' E 000°00'510.6
2018-May-11 06:01N 50°32' E 000°08'510.5
2018-May-11 05:31N 50°33' E 000°16'510.6
2018-May-11 05:00N 50°34' E 000°25'510.8
2018-May-11 04:30N 50°35' E 000°33'611.2
2018-May-11 04:01N 50°38' E 000°40'611.7
2018-May-11 03:31N 50°41' E 000°48'612.2
2018-May-11 03:00N 50°45' E 000°56'612.7
2018-May-11 02:31N 50°48' E 001°04'612.6
2018-May-11 02:00N 50°52' E 001°12'612.4
2018-May-11 01:31N 50°56' E 001°20'612.6
2018-May-11 01:01N 51°01' E 001°26'612.1
2018-May-11 00:31N 51°05' E 001°33'611.0
2018-May-11 00:01N 51°09' E 001°39'611.0
2018-May-10 23:30N 51°13' E 001°45'510.7
2018-May-10 23:01N 51°17' E 001°50'510.5
2018-May-10 22:31N 51°22' E 001°55'5 9.8
2018-May-10 22:01N 51°25' E 001°60'611.4
2018-May-10 21:30N 51°23' E 002°08'611.3
2018-May-10 21:01N 51°21' E 002°16'510.7
2018-May-10 20:30N 51°22' E 002°25'511.0
2018-May-10 20:01N 51°23' E 002°33'611.3
2018-May-10 19:30N 51°23' E 002°42'510.7
2018-May-10 19:00N 51°22' E 002°51'611.7
2018-May-10 18:30N 51°24' E 003°00'511.0
2018-May-10 18:00N 51°24' E 003°09'611.2
2018-May-10 17:30N 51°25' E 003°18'611.3
2018-May-10 17:00N 51°25' E 003°27'510.3
2018-May-10 16:30N 51°25' E 003°35'4 7.0
2018-May-10 16:00N 51°26' E 003°41'611.2
2018-May-10 15:31N 51°22' E 003°46'611.7
2018-May-10 15:00N 51°22' E 003°55'  

Dump ship's entire track history